sensor_id;sensor_type;location;lat;lon;timestamp;pressure;altitude;pressure_sealevel;temperature;humidity
59608;BME280;45426;44.726;10.390;2022-10-01T00:01:03;100469.59;;;15.96;100.00
59608;BME280;45426;44.726;10.390;2022-10-01T00:03:30;100474.88;;;16.08;100.00
59608;BME280;45426;44.726;10.390;2022-10-01T00:08:25;100483.19;;;15.04;100.00
59608;BME280;45426;44.726;10.390;2022-10-01T00:10:51;100479.28;;;15.90;100.00
59608;BME280;45426;44.726;10.390;2022-10-01T00:13:17;100473.91;;;16.24;100.00
59608;BME280;45426;44.726;10.390;2022-10-01T00:15:43;100474.38;;;16.29;100.00
59608;BME280;45426;44.726;10.390;2022-10-01T00:18:08;100476.53;;;16.17;100.00
59608;BME280;45426;44.726;10.390;2022-10-01T00:20:38;100483.66;;;15.95;100.00
59608;BME280;45426;44.726;10.390;2022-10-01T00:23:10;100478.09;;;16.14;100.00
59608;BME280;45426;44.726;10.390;2022-10-01T00:25:36;100481.91;;;16.09;100.00
59608;BME280;45426;44.726;10.390;2022-10-01T00:28:02;100475.97;;;16.04;100.00
59608;BME280;45426;44.726;10.390;2022-10-01T00:30:27;100478.88;;;15.68;100.00
59608;BME280;45426;44.726;10.390;2022-10-01T00:32:53;100474.47;;;15.83;100.00
59608;BME280;45426;44.726;10.390;2022-10-01T00:35:19;100480.97;;;15.98;100.00
59608;BME280;45426;44.726;10.390;2022-10-01T00:37:47;100478.53;;;15.93;100.00
59608;BME280;45426;44.726;10.390;2022-10-01T00:40:14;100479.16;;;15.83;100.00
59608;BME280;45426;44.726;10.390;2022-10-01T00:42:40;100481.59;;;15.03;100.00
59608;BME280;45426;44.726;10.390;2022-10-01T00:45:06;100484.78;;;15.70;100.00
59608;BME280;45426;44.726;10.390;2022-10-01T00:50:28;100480.09;;;15.48;100.00
59608;BME280;45426;44.726;10.390;2022-10-01T00:53:02;100487.09;;;14.32;100.00
59608;BME280;45426;44.726;10.390;2022-10-01T00:57:54;100500.28;;;14.62;100.00
59608;BME280;45426;44.726;10.390;2022-10-01T01:00:21;100490.22;;;14.66;100.00
59608;BME280;45426;44.726;10.390;2022-10-01T01:02:47;100490.94;;;15.21;100.00
59608;BME280;45426;44.726;10.390;2022-10-01T01:05:13;100485.63;;;15.51;100.00
59608;BME280;45426;44.726;10.390;2022-10-01T01:07:42;100488.00;;;15.53;100.00
59608;BME280;45426;44.726;10.390;2022-10-01T01:10:16;100490.81;;;15.57;100.00
59608;BME280;45426;44.726;10.390;2022-10-01T01:15:46;100500.94;;;15.33;100.00
59608;BME280;45426;44.726;10.390;2022-10-01T01:21:29;100515.97;;;15.43;100.00
59608;BME280;45426;44.726;10.390;2022-10-01T01:24:00;100506.34;;;15.72;100.00
59608;BME280;45426;44.726;10.390;2022-10-01T01:29:04;100510.69;;;15.53;100.00
59608;BME280;45426;44.726;10.390;2022-10-01T01:31:34;100513.84;;;15.56;100.00
59608;BME280;45426;44.726;10.390;2022-10-01T01:34:04;100510.22;;;15.71;100.00
59608;BME280;45426;44.726;10.390;2022-10-01T01:36:33;100514.78;;;15.63;100.00
59608;BME280;45426;44.726;10.390;2022-10-01T01:39:03;100512.47;;;15.65;100.00
59608;BME280;45426;44.726;10.390;2022-10-01T01:41:34;100513.41;;;15.73;100.00
59608;BME280;45426;44.726;10.390;2022-10-01T01:44:04;100523.13;;;15.70;100.00
59608;BME280;45426;44.726;10.390;2022-10-01T01:46:35;100525.19;;;15.74;100.00
59608;BME280;45426;44.726;10.390;2022-10-01T01:49:03;100532.81;;;15.64;100.00
59608;BME280;45426;44.726;10.390;2022-10-01T01:51:55;100518.22;;;15.37;100.00
59608;BME280;45426;44.726;10.390;2022-10-01T01:54:23;100522.16;;;15.59;100.00
59608;BME280;45426;44.726;10.390;2022-10-01T01:56:49;100532.16;;;15.28;100.00
59608;BME280;45426;44.726;10.390;2022-10-01T01:59:17;100537.56;;;15.67;100.00
59608;BME280;45426;44.726;10.390;2022-10-01T02:01:44;100530.84;;;15.65;100.00
59608;BME280;45426;44.726;10.390;2022-10-01T02:14:59;100543.38;;;15.04;100.00
59608;BME280;45426;44.726;10.390;2022-10-01T02:17:46;100553.00;;;14.78;100.00
59608;BME280;45426;44.726;10.390;2022-10-01T02:20:22;100550.53;;;14.73;100.00
59608;BME280;45426;44.726;10.390;2022-10-01T02:22:56;100549.41;;;14.58;100.00
59608;BME280;45426;44.726;10.390;2022-10-01T02:25:24;100554.44;;;14.56;100.00
59608;BME280;45426;44.726;10.390;2022-10-01T02:27:55;100557.06;;;14.52;100.00
59608;BME280;45426;44.726;10.390;2022-10-01T02:30:27;100554.53;;;14.44;100.00
59608;BME280;45426;44.726;10.390;2022-10-01T02:32:54;100554.13;;;14.77;100.00
59608;BME280;45426;44.726;10.390;2022-10-01T02:35:25;100550.09;;;14.71;100.00
59608;BME280;45426;44.726;10.390;2022-10-01T02:37:53;100551.97;;;14.67;100.00
59608;BME280;45426;44.726;10.390;2022-10-01T02:40:23;100553.50;;;14.84;100.00
59608;BME280;45426;44.726;10.390;2022-10-01T02:42:55;100550.00;;;14.83;100.00
59608;BME280;45426;44.726;10.390;2022-10-01T02:45:23;100548.97;;;14.72;100.00
59608;BME280;45426;44.726;10.390;2022-10-01T02:48:10;100547.97;;;15.00;100.00
59608;BME280;45426;44.726;10.390;2022-10-01T02:50:45;100539.53;;;15.47;100.00
59608;BME280;45426;44.726;10.390;2022-10-01T02:53:19;100538.94;;;15.15;100.00
59608;BME280;45426;44.726;10.390;2022-10-01T02:55:46;100539.31;;;14.78;100.00
59608;BME280;45426;44.726;10.390;2022-10-01T02:58:13;100535.28;;;14.72;100.00
59608;BME280;45426;44.726;10.390;2022-10-01T03:00:38;100526.59;;;15.05;100.00
59608;BME280;45426;44.726;10.390;2022-10-01T03:03:04;100521.41;;;14.81;100.00
59608;BME280;45426;44.726;10.390;2022-10-01T03:05:29;100521.81;;;14.47;100.00
59608;BME280;45426;44.726;10.390;2022-10-01T03:07:55;100523.78;;;14.82;100.00
59608;BME280;45426;44.726;10.390;2022-10-01T03:10:20;100522.75;;;14.20;100.00
59608;BME280;45426;44.726;10.390;2022-10-01T03:12:46;100531.94;;;14.47;100.00
59608;BME280;45426;44.726;10.390;2022-10-01T03:15:13;100524.03;;;14.42;100.00
59608;BME280;45426;44.726;10.390;2022-10-01T03:17:39;100519.31;;;14.93;100.00
59608;BME280;45426;44.726;10.390;2022-10-01T03:20:05;100512.34;;;15.16;100.00
59608;BME280;45426;44.726;10.390;2022-10-01T03:22:31;100514.19;;;14.21;100.00
59608;BME280;45426;44.726;10.390;2022-10-01T03:24:57;100524.97;;;14.14;100.00
59608;BME280;45426;44.726;10.390;2022-10-01T03:27:23;100529.00;;;13.72;100.00
59608;BME280;45426;44.726;10.390;2022-10-01T03:29:49;100530.59;;;14.05;100.00
59608;BME280;45426;44.726;10.390;2022-10-01T03:32:15;100527.63;;;14.62;100.00
59608;BME280;45426;44.726;10.390;2022-10-01T03:34:40;100526.03;;;14.61;100.00
59608;BME280;45426;44.726;10.390;2022-10-01T03:37:06;100522.88;;;14.59;100.00
59608;BME280;45426;44.726;10.390;2022-10-01T03:39:32;100534.28;;;13.97;100.00
59608;BME280;45426;44.726;10.390;2022-10-01T03:41:57;100530.97;;;14.55;100.00
59608;BME280;45426;44.726;10.390;2022-10-01T03:44:23;100519.19;;;14.35;100.00
59608;BME280;45426;44.726;10.390;2022-10-01T03:46:48;100517.56;;;13.83;100.00
59608;BME280;45426;44.726;10.390;2022-10-01T03:49:13;100536.34;;;12.99;100.00
59608;BME280;45426;44.726;10.390;2022-10-01T03:51:39;100539.97;;;13.04;100.00
59608;BME280;45426;44.726;10.390;2022-10-01T03:54:06;100534.34;;;13.25;100.00
59608;BME280;45426;44.726;10.390;2022-10-01T03:56:33;100526.53;;;13.67;100.00
59608;BME280;45426;44.726;10.390;2022-10-01T03:58:58;100525.81;;;13.70;100.00
59608;BME280;45426;44.726;10.390;2022-10-01T04:01:24;100522.31;;;14.02;100.00
59608;BME280;45426;44.726;10.390;2022-10-01T04:03:50;100519.63;;;13.42;100.00
59608;BME280;45426;44.726;10.390;2022-10-01T04:06:16;100537.59;;;13.02;100.00
59608;BME280;45426;44.726;10.390;2022-10-01T04:08:42;100546.72;;;13.50;100.00
59608;BME280;45426;44.726;10.390;2022-10-01T04:11:08;100540.81;;;13.92;100.00
59608;BME280;45426;44.726;10.390;2022-10-01T04:13:34;100532.88;;;13.87;100.00
59608;BME280;45426;44.726;10.390;2022-10-01T04:16:03;100535.03;;;13.50;100.00
59608;BME280;45426;44.726;10.390;2022-10-01T04:18:30;100535.06;;;13.82;100.00
59608;BME280;45426;44.726;10.390;2022-10-01T04:20:56;100540.72;;;13.89;100.00
59608;BME280;45426;44.726;10.390;2022-10-01T04:23:22;100539.84;;;13.85;100.00
59608;BME280;45426;44.726;10.390;2022-10-01T04:25:48;100535.88;;;13.98;100.00
59608;BME280;45426;44.726;10.390;2022-10-01T04:28:13;100537.00;;;13.97;100.00
59608;BME280;45426;44.726;10.390;2022-10-01T04:30:41;100548.28;;;13.79;100.00
59608;BME280;45426;44.726;10.390;2022-10-01T04:33:10;100556.47;;;13.64;100.00
59608;BME280;45426;44.726;10.390;2022-10-01T04:35:36;100557.78;;;13.86;100.00
59608;BME280;45426;44.726;10.390;2022-10-01T04:38:04;100562.47;;;13.69;100.00
59608;BME280;45426;44.726;10.390;2022-10-01T04:40:30;100555.94;;;13.74;100.00
59608;BME280;45426;44.726;10.390;2022-10-01T04:42:56;100563.38;;;12.92;100.00
59608;BME280;45426;44.726;10.390;2022-10-01T04:45:21;100580.50;;;12.65;100.00
59608;BME280;45426;44.726;10.390;2022-10-01T04:47:53;100575.50;;;13.19;100.00
59608;BME280;45426;44.726;10.390;2022-10-01T04:50:22;100572.16;;;13.38;100.00
59608;BME280;45426;44.726;10.390;2022-10-01T04:52:48;100579.03;;;13.48;100.00
59608;BME280;45426;44.726;10.390;2022-10-01T04:55:15;100581.72;;;13.32;100.00
59608;BME280;45426;44.726;10.390;2022-10-01T04:57:41;100581.69;;;12.92;100.00
59608;BME280;45426;44.726;10.390;2022-10-01T05:00:09;100578.19;;;12.79;100.00
59608;BME280;45426;44.726;10.390;2022-10-01T05:02:35;100582.63;;;13.24;100.00
59608;BME280;45426;44.726;10.390;2022-10-01T05:05:05;100574.00;;;13.34;100.00
59608;BME280;45426;44.726;10.390;2022-10-01T05:07:32;100574.44;;;13.24;100.00
59608;BME280;45426;44.726;10.390;2022-10-01T05:09:58;100582.84;;;12.78;100.00
59608;BME280;45426;44.726;10.390;2022-10-01T05:12:25;100579.56;;;12.73;100.00
59608;BME280;45426;44.726;10.390;2022-10-01T05:14:51;100578.00;;;12.59;100.00
59608;BME280;45426;44.726;10.390;2022-10-01T05:17:17;100597.50;;;12.24;100.00
59608;BME280;45426;44.726;10.390;2022-10-01T05:19:44;100597.97;;;12.39;100.00
59608;BME280;45426;44.726;10.390;2022-10-01T05:22:09;100578.78;;;13.25;100.00
59608;BME280;45426;44.726;10.390;2022-10-01T05:24:35;100578.50;;;13.43;100.00
59608;BME280;45426;44.726;10.390;2022-10-01T05:27:00;100573.63;;;13.64;100.00
59608;BME280;45426;44.726;10.390;2022-10-01T05:29:26;100582.31;;;13.54;100.00
59608;BME280;45426;44.726;10.390;2022-10-01T05:31:51;100577.69;;;13.70;100.00
59608;BME280;45426;44.726;10.390;2022-10-01T05:34:16;100579.78;;;13.61;100.00
59608;BME280;45426;44.726;10.390;2022-10-01T05:36:42;100581.50;;;13.25;100.00
59608;BME280;45426;44.726;10.390;2022-10-01T05:39:08;100585.75;;;13.51;100.00
59608;BME280;45426;44.726;10.390;2022-10-01T05:41:33;100581.09;;;13.51;100.00
59608;BME280;45426;44.726;10.390;2022-10-01T05:43:59;100574.84;;;13.51;100.00
59608;BME280;45426;44.726;10.390;2022-10-01T05:46:24;100574.72;;;13.07;100.00
59608;BME280;45426;44.726;10.390;2022-10-01T05:48:51;100578.69;;;13.50;100.00
59608;BME280;45426;44.726;10.390;2022-10-01T05:51:17;100577.09;;;13.20;100.00
59608;BME280;45426;44.726;10.390;2022-10-01T05:53:42;100569.75;;;13.65;100.00
59608;BME280;45426;44.726;10.390;2022-10-01T05:56:08;100566.56;;;13.63;100.00
59608;BME280;45426;44.726;10.390;2022-10-01T05:58:34;100572.16;;;13.38;100.00
59608;BME280;45426;44.726;10.390;2022-10-01T06:01:00;100588.72;;;13.46;100.00
59608;BME280;45426;44.726;10.390;2022-10-01T06:03:25;100584.25;;;13.97;100.00
59608;BME280;45426;44.726;10.390;2022-10-01T06:05:54;100583.56;;;14.16;100.00
59608;BME280;45426;44.726;10.390;2022-10-01T06:08:20;100583.19;;;14.02;100.00
59608;BME280;45426;44.726;10.390;2022-10-01T06:10:46;100576.31;;;16.62;100.00
59608;BME280;45426;44.726;10.390;2022-10-01T06:13:12;100569.84;;;16.24;100.00
59608;BME280;45426;44.726;10.390;2022-10-01T06:15:43;100583.47;;;16.43;100.00
59608;BME280;45426;44.726;10.390;2022-10-01T06:18:11;100580.91;;;17.41;100.00
59608;BME280;45426;44.726;10.390;2022-10-01T06:20:37;100569.03;;;18.09;100.00
59608;BME280;45426;44.726;10.390;2022-10-01T06:23:05;100588.91;;;18.39;100.00
59608;BME280;45426;44.726;10.390;2022-10-01T06:25:32;100601.47;;;20.27;100.00
59608;BME280;45426;44.726;10.390;2022-10-01T06:28:00;100597.34;;;23.58;100.00
59608;BME280;45426;44.726;10.390;2022-10-01T06:30:29;100598.06;;;22.62;100.00
59608;BME280;45426;44.726;10.390;2022-10-01T06:33:15;100609.59;;;21.31;100.00
59608;BME280;45426;44.726;10.390;2022-10-01T06:35:48;100606.84;;;21.27;100.00
59608;BME280;45426;44.726;10.390;2022-10-01T06:38:15;100601.78;;;22.83;100.00
59608;BME280;45426;44.726;10.390;2022-10-01T06:40:41;100607.56;;;24.42;100.00
59608;BME280;45426;44.726;10.390;2022-10-01T06:43:07;100608.75;;;27.09;100.00
59608;BME280;45426;44.726;10.390;2022-10-01T06:45:37;100623.66;;;25.75;100.00
59608;BME280;45426;44.726;10.390;2022-10-01T06:48:03;100625.53;;;26.47;100.00
59608;BME280;45426;44.726;10.390;2022-10-01T06:50:32;100626.94;;;25.70;100.00
59608;BME280;45426;44.726;10.390;2022-10-01T06:52:59;100617.28;;;28.82;100.00
59608;BME280;45426;44.726;10.390;2022-10-01T06:55:30;100623.69;;;29.80;100.00
59608;BME280;45426;44.726;10.390;2022-10-01T06:58:01;100627.22;;;23.47;100.00
59608;BME280;45426;44.726;10.390;2022-10-01T07:00:28;100632.53;;;23.64;100.00
59608;BME280;45426;44.726;10.390;2022-10-01T07:02:54;100632.63;;;21.87;100.00
59608;BME280;45426;44.726;10.390;2022-10-01T07:05:20;100630.28;;;23.87;100.00
59608;BME280;45426;44.726;10.390;2022-10-01T07:07:46;100626.09;;;23.06;100.00
59608;BME280;45426;44.726;10.390;2022-10-01T07:10:16;100623.53;;;22.46;100.00
59608;BME280;45426;44.726;10.390;2022-10-01T07:12:43;100626.13;;;23.98;100.00
59608;BME280;45426;44.726;10.390;2022-10-01T07:15:10;100625.97;;;24.09;100.00
59608;BME280;45426;44.726;10.390;2022-10-01T07:17:42;100638.41;;;24.48;100.00
59608;BME280;45426;44.726;10.390;2022-10-01T07:20:09;100633.22;;;23.41;100.00
59608;BME280;45426;44.726;10.390;2022-10-01T07:22:35;100644.63;;;22.75;100.00
59608;BME280;45426;44.726;10.390;2022-10-01T07:25:01;100642.28;;;23.45;100.00
59608;BME280;45426;44.726;10.390;2022-10-01T07:27:26;100635.84;;;25.05;100.00
59608;BME280;45426;44.726;10.390;2022-10-01T07:29:51;100645.22;;;26.40;100.00
59608;BME280;45426;44.726;10.390;2022-10-01T07:32:17;100644.25;;;26.14;100.00
59608;BME280;45426;44.726;10.390;2022-10-01T07:34:42;100645.31;;;24.64;100.00
59608;BME280;45426;44.726;10.390;2022-10-01T07:37:08;100637.88;;;27.08;100.00
59608;BME280;45426;44.726;10.390;2022-10-01T07:39:35;100635.78;;;27.67;100.00
59608;BME280;45426;44.726;10.390;2022-10-01T07:42:00;100637.38;;;28.68;100.00
59608;BME280;45426;44.726;10.390;2022-10-01T07:44:26;100634.47;;;31.14;100.00
59608;BME280;45426;44.726;10.390;2022-10-01T07:46:54;100642.56;;;30.85;100.00
59608;BME280;45426;44.726;10.390;2022-10-01T07:49:19;100631.97;;;29.61;100.00
59608;BME280;45426;44.726;10.390;2022-10-01T07:51:45;100643.38;;;24.84;100.00
59608;BME280;45426;44.726;10.390;2022-10-01T07:54:13;100638.44;;;25.12;100.00
59608;BME280;45426;44.726;10.390;2022-10-01T07:56:38;100638.69;;;23.79;100.00
59608;BME280;45426;44.726;10.390;2022-10-01T07:59:03;100634.59;;;20.77;100.00
59608;BME280;45426;44.726;10.390;2022-10-01T08:01:29;100639.34;;;20.37;100.00
59608;BME280;45426;44.726;10.390;2022-10-01T08:03:55;100636.88;;;21.18;100.00
59608;BME280;45426;44.726;10.390;2022-10-01T08:06:21;100640.09;;;20.91;100.00
59608;BME280;45426;44.726;10.390;2022-10-01T08:08:47;100646.81;;;20.44;100.00
59608;BME280;45426;44.726;10.390;2022-10-01T08:11:13;100648.78;;;20.86;100.00
59608;BME280;45426;44.726;10.390;2022-10-01T08:13:42;100652.72;;;20.85;100.00
59608;BME280;45426;44.726;10.390;2022-10-01T08:16:10;100657.72;;;21.33;100.00
59608;BME280;45426;44.726;10.390;2022-10-01T08:18:36;100657.44;;;21.98;100.00
59608;BME280;45426;44.726;10.390;2022-10-01T08:21:02;100652.72;;;22.55;100.00
59608;BME280;45426;44.726;10.390;2022-10-01T08:23:29;100655.84;;;20.91;100.00
59608;BME280;45426;44.726;10.390;2022-10-01T08:26:05;100663.25;;;22.18;100.00
59608;BME280;45426;44.726;10.390;2022-10-01T08:28:32;100662.50;;;21.19;100.00
59608;BME280;45426;44.726;10.390;2022-10-01T08:30:58;100665.38;;;21.93;100.00
59608;BME280;45426;44.726;10.390;2022-10-01T08:33:23;100676.38;;;20.90;100.00
59608;BME280;45426;44.726;10.390;2022-10-01T08:35:49;100669.94;;;21.47;100.00
59608;BME280;45426;44.726;10.390;2022-10-01T08:38:14;100680.28;;;21.18;100.00
59608;BME280;45426;44.726;10.390;2022-10-01T08:40:45;100675.59;;;20.93;100.00
59608;BME280;45426;44.726;10.390;2022-10-01T08:43:30;100672.78;;;21.14;100.00
59608;BME280;45426;44.726;10.390;2022-10-01T08:46:00;100674.72;;;21.28;100.00
59608;BME280;45426;44.726;10.390;2022-10-01T08:48:31;100659.63;;;22.32;100.00
59608;BME280;45426;44.726;10.390;2022-10-01T08:51:24;100674.00;;;21.13;100.00
59608;BME280;45426;44.726;10.390;2022-10-01T08:54:21;100684.38;;;21.90;100.00
59608;BME280;45426;44.726;10.390;2022-10-01T08:56:47;100677.78;;;21.59;100.00
59608;BME280;45426;44.726;10.390;2022-10-01T08:59:42;100683.03;;;21.18;100.00
59608;BME280;45426;44.726;10.390;2022-10-01T09:02:28;100682.03;;;21.85;100.00
59608;BME280;45426;44.726;10.390;2022-10-01T09:04:59;100677.75;;;21.70;100.00
59608;BME280;45426;44.726;10.390;2022-10-01T09:07:39;100672.69;;;22.28;100.00
59608;BME280;45426;44.726;10.390;2022-10-01T09:13:08;100665.81;;;22.47;100.00
59608;BME280;45426;44.726;10.390;2022-10-01T09:15:57;100669.91;;;21.58;100.00
59608;BME280;45426;44.726;10.390;2022-10-01T09:18:54;100665.47;;;22.41;100.00
59608;BME280;45426;44.726;10.390;2022-10-01T09:21:55;100660.19;;;22.02;100.00
59608;BME280;45426;44.726;10.390;2022-10-01T09:24:23;100661.25;;;22.75;100.00
59608;BME280;45426;44.726;10.390;2022-10-01T09:26:54;100653.75;;;22.72;100.00
59608;BME280;45426;44.726;10.390;2022-10-01T09:29:32;100658.06;;;22.76;100.00
59608;BME280;45426;44.726;10.390;2022-10-01T09:32:00;100656.81;;;22.81;100.00
59608;BME280;45426;44.726;10.390;2022-10-01T09:34:35;100659.97;;;22.83;100.00
59608;BME280;45426;44.726;10.390;2022-10-01T09:37:29;100658.31;;;22.44;100.00
59608;BME280;45426;44.726;10.390;2022-10-01T09:42:47;100658.13;;;22.69;100.00
59608;BME280;45426;44.726;10.390;2022-10-01T09:45:16;100656.41;;;22.41;100.00
59608;BME280;45426;44.726;10.390;2022-10-01T09:47:48;100650.22;;;22.67;100.00
59608;BME280;45426;44.726;10.390;2022-10-01T09:50:33;100645.59;;;22.95;100.00
59608;BME280;45426;44.726;10.390;2022-10-01T09:53:02;100646.91;;;21.75;100.00
59608;BME280;45426;44.726;10.390;2022-10-01T09:55:35;100638.78;;;22.65;100.00
59608;BME280;45426;44.726;10.390;2022-10-01T09:58:16;100645.13;;;23.00;100.00
59608;BME280;45426;44.726;10.390;2022-10-01T10:00:43;100638.41;;;22.63;100.00
59608;BME280;45426;44.726;10.390;2022-10-01T10:03:09;100637.97;;;23.41;100.00
59608;BME280;45426;44.726;10.390;2022-10-01T10:05:45;100637.25;;;23.37;100.00
59608;BME280;45426;44.726;10.390;2022-10-01T10:08:35;100630.88;;;23.05;100.00
59608;BME280;45426;44.726;10.390;2022-10-01T10:11:07;100626.59;;;23.32;100.00
59608;BME280;45426;44.726;10.390;2022-10-01T10:13:36;100618.00;;;23.22;100.00
59608;BME280;45426;44.726;10.390;2022-10-01T10:18:56;100616.06;;;23.19;100.00
59608;BME280;45426;44.726;10.390;2022-10-01T10:21:25;100613.72;;;23.18;100.00
59608;BME280;45426;44.726;10.390;2022-10-01T10:23:58;100616.28;;;22.60;100.00
59608;BME280;45426;44.726;10.390;2022-10-01T10:26:34;100597.84;;;22.84;100.00
59608;BME280;45426;44.726;10.390;2022-10-01T10:29:02;100595.53;;;21.81;100.00
59608;BME280;45426;44.726;10.390;2022-10-01T10:31:39;100596.06;;;23.04;100.00
59608;BME280;45426;44.726;10.390;2022-10-01T10:34:12;100575.97;;;22.93;100.00
59608;BME280;45426;44.726;10.390;2022-10-01T10:36:38;100574.66;;;23.05;100.00
59608;BME280;45426;44.726;10.390;2022-10-01T10:39:23;100572.09;;;21.23;100.00
59608;BME280;45426;44.726;10.390;2022-10-01T10:41:51;100569.97;;;22.98;100.00
59608;BME280;45426;44.726;10.390;2022-10-01T10:44:18;100562.78;;;23.66;100.00
59608;BME280;45426;44.726;10.390;2022-10-01T10:46:46;100570.75;;;23.91;100.00
59608;BME280;45426;44.726;10.390;2022-10-01T10:49:22;100571.50;;;23.64;100.00
59608;BME280;45426;44.726;10.390;2022-10-01T10:51:54;100574.53;;;22.78;100.00
59608;BME280;45426;44.726;10.390;2022-10-01T10:54:32;100574.31;;;23.34;100.00
59608;BME280;45426;44.726;10.390;2022-10-01T10:57:09;100568.94;;;23.77;100.00
59608;BME280;45426;44.726;10.390;2022-10-01T10:59:40;100571.66;;;23.23;100.00
59608;BME280;45426;44.726;10.390;2022-10-01T11:02:14;100580.38;;;23.25;100.00
59608;BME280;45426;44.726;10.390;2022-10-01T11:04:41;100566.06;;;23.26;100.00
59608;BME280;45426;44.726;10.390;2022-10-01T11:07:09;100569.78;;;23.74;100.00
59608;BME280;45426;44.726;10.390;2022-10-01T11:15:20;100543.59;;;23.75;100.00
59608;BME280;45426;44.726;10.390;2022-10-01T11:18:08;100546.34;;;23.52;100.00
59608;BME280;45426;44.726;10.390;2022-10-01T11:23:37;100558.06;;;23.63;100.00
59608;BME280;45426;44.726;10.390;2022-10-01T11:26:25;100554.75;;;23.99;100.00
59608;BME280;45426;44.726;10.390;2022-10-01T11:34:24;100548.84;;;23.97;100.00
59608;BME280;45426;44.726;10.390;2022-10-01T11:37:11;100556.47;;;23.62;100.00
59608;BME280;45426;44.726;10.390;2022-10-01T11:39:43;100566.66;;;23.72;100.00
59608;BME280;45426;44.726;10.390;2022-10-01T11:42:16;100574.78;;;24.10;100.00
59608;BME280;45426;44.726;10.390;2022-10-01T11:45:00;100568.47;;;24.10;100.00
59608;BME280;45426;44.726;10.390;2022-10-01T11:47:51;100567.34;;;23.80;100.00
59608;BME280;45426;44.726;10.390;2022-10-01T11:55:20;100562.94;;;23.82;100.00
59608;BME280;45426;44.726;10.390;2022-10-01T11:58:30;100551.16;;;24.02;100.00
59608;BME280;45426;44.726;10.390;2022-10-01T12:04:42;100547.78;;;23.60;100.00
59608;BME280;45426;44.726;10.390;2022-10-01T12:07:09;100547.81;;;24.11;100.00
59608;BME280;45426;44.726;10.390;2022-10-01T12:09:49;100538.97;;;23.69;100.00
59608;BME280;45426;44.726;10.390;2022-10-01T12:12:55;100529.53;;;23.90;100.00
59608;BME280;45426;44.726;10.390;2022-10-01T12:15:30;100550.53;;;23.91;100.00
59608;BME280;45426;44.726;10.390;2022-10-01T12:18:02;100538.78;;;23.83;100.00
59608;BME280;45426;44.726;10.390;2022-10-01T12:20:40;100533.94;;;23.87;100.00
59608;BME280;45426;44.726;10.390;2022-10-01T12:23:13;100526.28;;;23.68;100.00
59608;BME280;45426;44.726;10.390;2022-10-01T12:28:39;100535.78;;;23.70;100.00
59608;BME280;45426;44.726;10.390;2022-10-01T12:33:55;100536.84;;;23.49;100.00
59608;BME280;45426;44.726;10.390;2022-10-01T12:56:07;100495.28;;;23.22;100.00
59608;BME280;45426;44.726;10.390;2022-10-01T13:12:39;100485.19;;;23.08;100.00
59608;BME280;45426;44.726;10.390;2022-10-01T13:15:13;100486.09;;;22.25;100.00
59608;BME280;45426;44.726;10.390;2022-10-01T13:17:45;100479.13;;;22.86;100.00
59608;BME280;45426;44.726;10.390;2022-10-01T13:20:19;100477.09;;;23.48;100.00
59608;BME280;45426;44.726;10.390;2022-10-01T13:23:02;100474.16;;;23.01;100.00
59608;BME280;45426;44.726;10.390;2022-10-01T13:25:41;100473.44;;;23.28;100.00
59608;BME280;45426;44.726;10.390;2022-10-01T13:28:20;100475.69;;;23.36;100.00
59608;BME280;45426;44.726;10.390;2022-10-01T13:33:27;100467.50;;;22.95;100.00
59608;BME280;45426;44.726;10.390;2022-10-01T13:35:57;100470.41;;;23.45;100.00
59608;BME280;45426;44.726;10.390;2022-10-01T13:40:59;100462.94;;;23.66;100.00
59608;BME280;45426;44.726;10.390;2022-10-01T13:43:28;100464.91;;;23.65;100.00
59608;BME280;45426;44.726;10.390;2022-10-01T13:45:55;100452.78;;;23.56;100.00
59608;BME280;45426;44.726;10.390;2022-10-01T13:48:31;100466.13;;;23.64;100.00
59608;BME280;45426;44.726;10.390;2022-10-01T13:51:06;100456.34;;;23.56;100.00
59608;BME280;45426;44.726;10.390;2022-10-01T13:56:10;100435.22;;;23.90;100.00
59608;BME280;45426;44.726;10.390;2022-10-01T13:58:44;100423.06;;;23.33;100.00
59608;BME280;45426;44.726;10.390;2022-10-01T14:09:21;100424.34;;;23.52;100.00
59608;BME280;45426;44.726;10.390;2022-10-01T14:11:50;100429.84;;;23.28;100.00
59608;BME280;45426;44.726;10.390;2022-10-01T14:14:42;100436.88;;;23.60;100.00
59608;BME280;45426;44.726;10.390;2022-10-01T14:17:31;100436.66;;;23.74;100.00
59608;BME280;45426;44.726;10.390;2022-10-01T14:19:58;100435.19;;;23.42;100.00
59608;BME280;45426;44.726;10.390;2022-10-01T14:22:44;100417.56;;;23.29;100.00
59608;BME280;45426;44.726;10.390;2022-10-01T14:25:31;100423.53;;;23.28;100.00
59608;BME280;45426;44.726;10.390;2022-10-01T14:34:33;100417.72;;;23.45;100.00
59608;BME280;45426;44.726;10.390;2022-10-01T14:36:34;100421.47;;;23.82;100.00
59608;BME280;45426;44.726;10.390;2022-10-01T14:39:25;100430.38;;;23.94;100.00
59608;BME280;45426;44.726;10.390;2022-10-01T14:41:50;100432.56;;;23.82;100.00
59608;BME280;45426;44.726;10.390;2022-10-01T14:44:39;100429.78;;;23.59;100.00
59608;BME280;45426;44.726;10.390;2022-10-01T14:47:24;100427.00;;;23.59;100.00